Time;durP1;ratioP1;P1;durP2;ratioP2;P2;SDS_P1;SDS_P2;PMS_P1;PMS_P2;Temp;Humidity;BMP_temperature;BMP_pressure;BME280_temperature;BME280_humidity;BME280_pressure;Samples;Min_cycle;Max_cycle;Signal;HPM_P1;HPM_P2
2022/12/18 00:00:08;;;;;;;18.83;9.00;;;8.70;96.80;;;;;;6155759;23;20231;-78
2022/12/18 00:02:37;;;;;;;16.60;8.50;;;8.70;96.90;;;;;;6148390;23;20231;-79
2022/12/18 00:05:06;;;;;;;17.37;9.73;;;8.70;96.80;;;;;;6154141;23;20172;-78
2022/12/18 00:07:36;;;;;;;18.13;9.67;;;8.70;96.90;;;;;;6153849;23;20223;-79
2022/12/18 00:10:06;;;;;;;21.27;9.43;;;8.70;96.80;;;;;;6154676;23;20160;-78
2022/12/18 00:12:34;;;;;;;17.27;9.10;;;8.70;96.80;;;;;;6152290;23;20618;-79
2022/12/18 00:15:03;;;;;;;18.07;8.90;;;8.70;96.80;;;;;;6153922;23;20169;-77
2022/12/18 00:17:32;;;;;;;21.00;9.50;;;8.60;96.70;;;;;;6150680;23;20247;-79
2022/12/18 00:20:00;;;;;;;22.83;10.87;;;8.60;96.70;;;;;;6151589;23;20658;-79
2022/12/18 00:22:28;;;;;;;20.87;9.70;;;8.60;96.80;;;;;;6149815;23;20630;-79
2022/12/18 00:24:58;;;;;;;19.90;9.50;;;8.70;96.80;;;;;;6155093;23;20176;-78
2022/12/18 00:27:26;;;;;;;20.30;9.17;;;8.70;96.90;;;;;;6148526;23;20184;-80
2022/12/18 00:29:54;;;;;;;22.30;9.83;;;8.70;96.90;;;;;;6152945;23;20175;-78
2022/12/18 00:32:23;;;;;;;17.43;9.57;;;8.80;96.90;;;;;;6151007;23;20165;-79
2022/12/18 00:34:51;;;;;;;21.83;10.50;;;8.80;96.80;;;;;;6152756;23;20177;-79
2022/12/18 00:37:19;;;;;;;20.93;9.87;;;8.80;96.70;;;;;;6148026;23;20250;-79
2022/12/18 00:39:50;;;;;;;19.73;9.63;;;8.80;96.70;;;;;;6153414;23;20181;-79
2022/12/18 00:45:06;;;;;;;19.80;9.87;;;8.80;96.60;;;;;;6151382;23;20157;-79
2022/12/18 00:47:40;;;;;;;22.47;9.53;;;8.80;96.60;;;;;;6147694;23;20199;-77
2022/12/18 00:50:09;;;;;;;19.57;9.93;;;8.80;96.60;;;;;;6152463;23;20173;-79
2022/12/18 00:52:46;;;;;;;20.73;10.97;;;8.90;96.60;;;;;;6149438;23;20641;-78
2022/12/18 00:55:15;;;;;;;22.33;10.43;;;8.90;96.50;;;;;;6152712;23;20160;-79
2022/12/18 00:57:45;;;;;;;24.93;10.33;;;8.80;96.40;;;;;;6151825;23;20224;-78
2022/12/18 01:00:15;;;;;;;18.77;9.73;;;8.80;96.40;;;;;;6149447;23;20219;-79
2022/12/18 01:02:43;;;;;;;19.27;9.83;;;8.90;96.40;;;;;;6152636;23;20165;-78
2022/12/18 01:05:13;;;;;;;23.83;10.47;;;8.80;96.30;;;;;;6154624;23;20169;-79
2022/12/18 01:07:42;;;;;;;24.40;9.97;;;8.80;96.10;;;;;;6152065;23;20216;-79
2022/12/18 01:10:13;;;;;;;19.73;9.47;;;8.80;96.10;;;;;;6153949;23;20208;-79
2022/12/18 01:12:42;;;;;;;22.97;11.00;;;8.80;96.20;;;;;;6154028;23;20216;-78
2022/12/18 01:15:13;;;;;;;20.80;10.47;;;8.80;96.20;;;;;;6154897;23;20223;-78
2022/12/18 01:17:42;;;;;;;20.47;9.90;;;8.80;96.60;;;;;;6151705;23;20192;-78
2022/12/18 01:20:12;;;;;;;21.07;10.73;;;8.80;96.20;;;;;;6156201;23;20180;-78
2022/12/18 01:22:40;;;;;;;19.53;10.13;;;8.80;96.10;;;;;;6155852;23;20165;-78
2022/12/18 01:25:09;;;;;;;23.33;10.40;;;8.80;95.90;;;;;;6157512;23;20354;-79
2022/12/18 01:27:38;;;;;;;23.50;11.67;;;8.70;95.90;;;;;;6156767;23;20177;-79
2022/12/18 01:30:07;;;;;;;25.37;10.80;;;8.70;95.80;;;;;;6150189;23;20233;-78
2022/12/18 01:32:37;;;;;;;24.30;11.37;;;8.70;95.80;;;;;;6154012;23;20180;-77
2022/12/18 01:35:07;;;;;;;24.13;10.50;;;8.70;95.80;;;;;;6156544;23;20200;-77
2022/12/18 01:37:35;;;;;;;22.83;10.43;;;8.60;95.80;;;;;;6156197;23;20192;-79
2022/12/18 01:40:04;;;;;;;23.93;11.37;;;8.70;95.80;;;;;;6158787;23;20606;-77
2022/12/18 01:42:32;;;;;;;25.07;11.03;;;8.60;95.70;;;;;;6154121;23;20172;-77
2022/12/18 01:45:06;;;;;;;24.57;11.13;;;8.60;95.70;;;;;;6159061;23;20199;-78
2022/12/18 01:47:40;;;;;;;25.87;12.10;;;8.50;95.70;;;;;;6156862;23;20775;-78
2022/12/18 01:50:12;;;;;;;26.53;11.43;;;8.50;95.70;;;;;;6159120;23;20157;-79
2022/12/18 01:52:45;;;;;;;26.23;12.13;;;8.50;95.70;;;;;;6157124;23;20558;-79
2022/12/18 01:55:17;;;;;;;24.67;12.00;;;8.40;95.70;;;;;;6156004;23;20689;-80
2022/12/18 01:57:46;;;;;;;24.87;11.13;;;8.40;95.70;;;;;;6155542;23;20192;-80
2022/12/18 02:00:17;;;;;;;22.70;10.73;;;8.40;95.80;;;;;;6152431;23;20220;-79
2022/12/18 02:02:47;;;;;;;24.63;10.67;;;8.50;95.90;;;;;;6154705;23;20165;-80
2022/12/18 02:05:19;;;;;;;22.10;11.23;;;8.50;95.90;;;;;;6154887;23;20174;-79
2022/12/18 02:08:02;;;;;;;24.50;12.07;;;8.50;95.90;;;;;;6159873;23;20220;-79
2022/12/18 02:10:42;;;;;;;22.63;11.63;;;8.50;95.80;;;;;;6158383;23;20169;-79
2022/12/18 02:13:17;;;;;;;24.83;12.03;;;8.50;95.80;;;;;;6155542;23;20164;-78
2022/12/18 02:15:52;;;;;;;26.03;12.33;;;8.40;95.80;;;;;;6154863;23;20219;-77
2022/12/18 02:18:25;;;;;;;25.37;12.30;;;8.40;95.70;;;;;;6155043;23;20235;-80
2022/12/18 02:20:59;;;;;;;28.37;11.80;;;8.40;95.70;;;;;;6158714;23;20188;-78
2022/12/18 02:23:44;;;;;;;27.33;11.73;;;8.40;95.70;;;;;;6153375;23;20590;-80
2022/12/18 02:26:23;;;;;;;26.90;11.63;;;8.40;95.70;;;;;;6149859;23;20668;-79
2022/12/18 02:28:55;;;;;;;24.47;12.10;;;8.40;95.70;;;;;;6153563;23;20171;-79
2022/12/18 02:31:27;;;;;;;23.83;11.00;;;8.40;95.60;;;;;;6150417;23;20165;-79
2022/12/18 02:34:03;;;;;;;33.10;12.97;;;8.40;95.70;;;;;;6152999;23;20164;-80
2022/12/18 02:36:33;;;;;;;25.47;12.43;;;8.30;96.00;;;;;;6154564;23;20228;-79
2022/12/18 02:39:03;;;;;;;29.23;12.10;;;8.40;95.70;;;;;;6154925;23;20215;-78
2022/12/18 02:41:34;;;;;;;31.07;13.43;;;8.40;95.70;;;;;;6153097;23;20212;-79
2022/12/18 02:44:08;;;;;;;27.80;13.50;;;8.40;95.70;;;;;;6154557;23;20160;-79
2022/12/18 02:46:40;;;;;;;27.10;12.47;;;8.40;95.70;;;;;;6153233;23;20226;-78
2022/12/18 02:49:21;;;;;;;27.63;13.37;;;8.40;95.70;;;;;;6152424;23;20167;-79
2022/12/18 02:51:54;;;;;;;29.93;12.63;;;8.40;95.70;;;;;;6151771;23;20160;-78
2022/12/18 02:54:37;;;;;;;27.50;13.13;;;8.40;95.70;;;;;;6153598;23;20200;-79
2022/12/18 02:57:16;;;;;;;31.80;14.00;;;8.50;95.60;;;;;;6151957;23;20661;-80
2022/12/18 02:59:52;;;;;;;29.43;13.63;;;8.50;95.70;;;;;;6154614;23;20263;-79
2022/12/18 03:02:26;;;;;;;27.63;12.27;;;8.50;95.70;;;;;;6153952;23;20160;-77
2022/12/18 03:05:02;;;;;;;27.57;12.07;;;8.40;95.70;;;;;;6155398;23;20222;-77
2022/12/18 03:07:38;;;;;;;28.03;12.37;;;8.40;95.70;;;;;;6152847;23;20491;-77
2022/12/18 03:10:10;;;;;;;31.13;14.60;;;8.50;95.80;;;;;;6157078;23;20164;-79
2022/12/18 03:12:44;;;;;;;28.83;13.50;;;8.50;95.70;;;;;;6164247;23;20171;-78
2022/12/18 03:15:18;;;;;;;30.43;14.50;;;8.40;95.50;;;;;;6153278;23;20195;-78
2022/12/18 03:17:51;;;;;;;31.60;14.87;;;8.40;95.60;;;;;;6154588;23;20200;-77
2022/12/18 03:20:22;;;;;;;30.63;14.13;;;8.30;95.60;;;;;;6151453;23;20184;-79
2022/12/18 03:22:56;;;;;;;29.63;13.73;;;8.30;95.70;;;;;;6152198;23;20196;-79
2022/12/18 03:25:27;;;;;;;30.97;14.67;;;8.30;95.80;;;;;;6154423;23;20628;-78
2022/12/18 03:28:00;;;;;;;31.10;13.63;;;8.40;95.90;;;;;;6152560;23;20164;-78
2022/12/18 03:30:31;;;;;;;27.10;13.13;;;8.40;95.90;;;;;;6148900;23;20192;-78
2022/12/18 03:33:04;;;;;;;29.33;13.53;;;8.40;96.00;;;;;;6150707;23;20164;-78
2022/12/18 03:35:37;;;;;;;31.10;13.90;;;8.40;96.10;;;;;;6152559;23;20164;-78
2022/12/18 03:38:08;;;;;;;27.33;12.50;;;8.40;96.10;;;;;;6152401;23;20278;-79
2022/12/18 03:40:45;;;;;;;29.53;14.07;;;8.40;96.10;;;;;;6151817;23;20172;-79
2022/12/18 03:43:21;;;;;;;30.33;14.30;;;8.40;96.20;;;;;;6151953;23;20164;-79
2022/12/18 03:45:55;;;;;;;33.77;14.67;;;8.40;96.20;;;;;;6152757;23;20171;-78
2022/12/18 03:48:31;;;;;;;31.77;15.68;;;8.40;96.30;;;;;;6148706;23;20387;-79
2022/12/18 03:51:03;;;;;;;31.53;13.37;;;8.40;96.60;;;;;;6150465;23;20214;-78
2022/12/18 03:53:40;;;;;;;29.97;13.57;;;8.40;96.60;;;;;;6152924;23;20669;-78
2022/12/18 03:56:11;;;;;;;33.53;14.73;;;8.40;96.60;;;;;;6153506;23;20169;-78
2022/12/18 03:58:42;;;;;;;33.10;13.70;;;8.40;96.60;;;;;;6152452;23;20214;-78
2022/12/18 04:01:14;;;;;;;27.90;13.50;;;8.40;96.50;;;;;;6151946;23;20239;-78
2022/12/18 04:03:44;;;;;;;35.67;15.95;;;8.40;96.50;;;;;;6151008;23;20391;-78
2022/12/18 04:06:14;;;;;;;33.37;14.57;;;8.40;96.70;;;;;;6153324;23;20165;-79
2022/12/18 04:08:43;;;;;;;33.17;15.17;;;8.40;96.60;;;;;;6150214;23;20187;-79
2022/12/18 04:11:11;;;;;;;33.60;13.43;;;8.40;96.60;;;;;;6148493;23;20216;-79
2022/12/18 04:13:43;;;;;;;35.50;14.30;;;8.40;96.60;;;;;;6151882;23;20173;-79
2022/12/18 04:16:12;;;;;;;37.85;17.10;;;8.40;96.60;;;;;;6152446;23;20382;-78
2022/12/18 04:18:40;;;;;;;28.67;13.37;;;8.50;96.90;;;;;;6150263;23;20204;-79
2022/12/18 04:21:09;;;;;;;30.83;14.17;;;8.50;96.90;;;;;;6149099;23;20220;-78
2022/12/18 04:23:37;;;;;;;31.27;13.53;;;8.60;96.90;;;;;;6152206;23;20172;-79
2022/12/18 04:26:06;;;;;;;32.93;15.13;;;8.60;96.80;;;;;;6151034;23;20172;-79
2022/12/18 04:28:34;;;;;;;32.83;13.83;;;8.60;96.80;;;;;;6151426;23;20234;-79
2022/12/18 04:31:04;;;;;;;28.70;13.23;;;8.60;96.70;;;;;;6151370;23;20859;-78
2022/12/18 04:33:32;;;;;;;30.67;13.97;;;8.70;96.70;;;;;;6098186;23;20172;-78
2022/12/18 04:36:01;;;;;;;31.27;13.83;;;8.70;96.70;;;;;;6151551;23;20513;-78
2022/12/18 04:38:29;;;;;;;34.27;14.20;;;8.70;96.70;;;;;;6153129;23;20192;-78
2022/12/18 04:40:57;;;;;;;30.87;13.10;;;8.80;96.70;;;;;;6152853;23;20168;-79
2022/12/18 04:43:26;;;;;;;31.63;14.03;;;8.80;96.60;;;;;;6152695;23;20668;-77
2022/12/18 04:45:54;;;;;;;28.03;13.27;;;8.80;96.50;;;;;;6154294;23;20230;-78
2022/12/18 04:48:24;;;;;;;31.17;13.47;;;8.80;96.40;;;;;;6153879;23;20492;-79
2022/12/18 04:50:52;;;;;;;30.43;13.97;;;8.80;96.40;;;;;;6153952;23;20618;-78
2022/12/18 04:53:20;;;;;;;28.73;14.30;;;8.80;96.40;;;;;;6152210;23;20204;-78
2022/12/18 04:55:49;;;;;;;30.40;13.63;;;8.90;96.40;;;;;;6153650;23;20169;-79
2022/12/18 04:58:17;;;;;;;36.93;13.80;;;8.90;96.40;;;;;;6154967;23;20173;-79
2022/12/18 05:00:46;;;;;;;32.83;14.47;;;8.90;96.40;;;;;;6154908;23;20215;-78
2022/12/18 05:03:14;;;;;;;34.60;14.70;;;8.90;96.30;;;;;;6153829;23;20611;-79
2022/12/18 05:05:44;;;;;;;30.33;13.63;;;8.90;96.30;;;;;;6152490;23;20176;-79
2022/12/18 05:08:12;;;;;;;32.30;13.63;;;8.90;96.30;;;;;;6151606;23;20199;-79
2022/12/18 05:10:40;;;;;;;34.60;13.77;;;8.90;96.30;;;;;;6153270;23;20180;-78
2022/12/18 05:13:08;;;;;;;29.93;14.43;;;8.90;96.30;;;;;;6154829;23;20634;-78
2022/12/18 05:15:37;;;;;;;35.42;15.57;;;8.90;96.30;;;;;;6151920;23;20398;-78
2022/12/18 05:18:05;;;;;;;32.03;14.80;;;8.90;96.30;;;;;;6153554;23;20173;-77
2022/12/18 05:20:33;;;;;;;35.23;13.83;;;9.00;96.40;;;;;;6151072;23;20193;-77
2022/12/18 05:23:03;;;;;;;31.03;14.03;;;9.00;96.30;;;;;;6150789;23;20235;-78
2022/12/18 05:25:31;;;;;;;31.77;14.43;;;9.00;96.30;;;;;;6152586;23;20172;-78
2022/12/18 05:28:00;;;;;;;34.90;16.08;;;9.00;96.30;;;;;;6149600;23;20390;-78
2022/12/18 05:30:28;;;;;;;31.57;14.60;;;9.00;96.40;;;;;;6153982;23;20173;-77
2022/12/18 05:32:56;;;;;;;36.20;14.90;;;9.00;96.40;;;;;;6151942;23;20176;-78
2022/12/18 05:35:25;;;;;;;29.53;13.83;;;9.00;96.30;;;;;;6149086;23;20630;-78
2022/12/18 05:37:53;;;;;;;32.47;14.90;;;9.00;96.30;;;;;;6152500;23;20176;-78
2022/12/18 05:40:23;;;;;;;35.87;14.77;;;9.00;96.30;;;;;;6150486;23;20725;-77
2022/12/18 05:42:51;;;;;;;32.63;14.03;;;9.10;96.30;;;;;;6154022;23;20633;-78
2022/12/18 05:45:20;;;;;;;29.53;13.30;;;9.00;96.30;;;;;;6147342;23;20227;-77
2022/12/18 05:47:48;;;;;;;33.60;14.73;;;9.00;96.30;;;;;;6154596;23;20169;-77
2022/12/18 05:50:16;;;;;;;37.47;14.57;;;9.10;96.30;;;;;;6154196;23;20169;-78
2022/12/18 05:52:45;;;;;;;35.53;15.68;;;9.10;96.30;;;;;;6153159;23;20386;-78
2022/12/18 05:55:13;;;;;;;33.87;14.13;;;9.10;96.50;;;;;;6151550;23;20176;-78
2022/12/18 05:57:43;;;;;;;31.30;14.90;;;9.10;96.50;;;;;;6153076;23;20595;-77
2022/12/18 06:00:13;;;;;;;32.53;14.50;;;9.00;96.40;;;;;;6154023;23;20689;-77
2022/12/18 06:02:41;;;;;;;37.30;14.30;;;9.10;96.40;;;;;;6154795;23;20181;-77
2022/12/18 06:05:10;;;;;;;39.88;16.65;;;9.10;96.40;;;;;;6151019;23;20752;-77
2022/12/18 06:07:38;;;;;;;34.90;15.50;;;9.10;96.50;;;;;;6148416;23;20173;-77
2022/12/18 06:10:07;;;;;;;29.77;15.10;;;9.10;96.40;;;;;;6147978;23;20173;-78
2022/12/18 06:12:36;;;;;;;33.73;14.27;;;9.10;96.30;;;;;;6148377;23;20188;-76
2022/12/18 06:15:06;;;;;;;35.40;14.43;;;9.10;96.30;;;;;;6148940;23;20698;-77
2022/12/18 06:17:35;;;;;;;36.80;16.03;;;9.10;96.20;;;;;;6152777;23;20160;-78
2022/12/18 06:20:06;;;;;;;40.63;17.10;;;9.10;96.00;;;;;;6152272;23;20227;-77
2022/12/18 06:22:34;;;;;;;42.17;16.50;;;9.00;96.00;;;;;;6151819;23;20168;-78
2022/12/18 06:25:03;;;;;;;44.07;17.07;;;9.00;96.00;;;;;;6149625;23;20284;-78
2022/12/18 06:27:31;;;;;;;36.50;15.50;;;9.00;95.90;;;;;;6151983;23;20228;-79
2022/12/18 06:29:59;;;;;;;42.93;17.07;;;9.00;95.90;;;;;;6152109;23;20619;-78
2022/12/18 06:32:29;;;;;;;38.77;17.20;;;9.00;96.00;;;;;;6152471;23;20173;-78
2022/12/18 06:34:57;;;;;;;37.03;15.37;;;9.00;96.00;;;;;;6152225;23;20275;-78
2022/12/18 06:37:26;;;;;;;35.43;15.47;;;9.00;96.00;;;;;;6154290;23;20523;-78
2022/12/18 06:39:56;;;;;;;35.13;15.77;;;9.00;96.00;;;;;;6150365;23;20196;-79
2022/12/18 06:42:26;;;;;;;39.10;17.20;;;9.00;96.00;;;;;;6151333;23;20544;-79
2022/12/18 06:44:55;;;;;;;43.07;17.80;;;8.90;95.90;;;;;;6150186;23;20169;-78
2022/12/18 06:47:24;;;;;;;36.93;16.53;;;8.90;95.90;;;;;;6148396;23;20191;-77
2022/12/18 06:49:54;;;;;;;36.83;16.17;;;8.90;95.90;;;;;;6148580;23;20176;-79
2022/12/18 06:52:23;;;;;;;41.10;16.17;;;8.90;96.00;;;;;;6149887;23;20157;-78
2022/12/18 06:54:51;;;;;;;34.03;16.07;;;8.90;96.00;;;;;;6150300;23;20172;-78
2022/12/18 06:57:19;;;;;;;38.93;16.30;;;8.80;96.00;;;;;;6152256;23;20179;-77
2022/12/18 06:59:47;;;;;;;39.83;17.27;;;8.80;96.00;;;;;;6149861;23;20204;-79
2022/12/18 07:02:16;;;;;;;44.30;16.27;;;8.80;96.00;;;;;;6151714;23;20172;-78
2022/12/18 07:04:44;;;;;;;40.73;16.20;;;8.80;96.00;;;;;;6150824;23;20223;-78
2022/12/18 07:07:14;;;;;;;37.80;16.03;;;8.80;96.00;;;;;;6150123;23;20507;-79
2022/12/18 07:09:42;;;;;;;40.35;18.00;;;8.80;96.00;;;;;;6145962;23;20383;-78
2022/12/18 07:12:11;;;;;;;40.03;17.73;;;8.80;96.00;;;;;;6148647;23;20177;-78
2022/12/18 07:14:39;;;;;;;35.37;16.37;;;8.80;96.00;;;;;;6148456;23;20172;-79
2022/12/18 07:17:07;;;;;;;39.07;16.93;;;8.70;96.00;;;;;;6148347;23;20696;-77
2022/12/18 07:19:36;;;;;;;36.57;17.03;;;8.80;96.10;;;;;;6148654;23;20478;-77
2022/12/18 07:22:05;;;;;;;40.00;17.50;;;8.70;96.10;;;;;;6148498;23;20233;-77
2022/12/18 07:24:35;;;;;;;39.97;17.73;;;8.70;96.00;;;;;;6151223;23;20196;-76
2022/12/18 07:27:03;;;;;;;39.43;17.63;;;8.70;96.00;;;;;;6154077;23;20168;-76
2022/12/18 07:29:35;;;;;;;40.00;16.83;;;8.70;96.00;;;;;;6148621;23;20840;-77
2022/12/18 07:32:03;;;;;;;36.60;17.07;;;8.70;96.00;;;;;;6152377;23;20192;-79
2022/12/18 07:34:31;;;;;;;43.53;19.42;;;8.70;96.10;;;;;;6148340;23;20505;-77
2022/12/18 07:37:00;;;;;;;36.70;16.73;;;8.70;96.20;;;;;;6152361;23;20172;-77
2022/12/18 07:39:28;;;;;;;35.77;17.10;;;8.70;96.20;;;;;;6153913;23;20541;-78
2022/12/18 07:44:43;;;;;;;35.13;16.00;;;8.60;96.00;;;;;;6152952;23;20164;-77
2022/12/18 07:47:12;;;;;;;35.93;17.30;;;8.60;95.90;;;;;;6152320;23;20172;-77
2022/12/18 07:49:40;;;;;;;36.80;16.23;;;8.60;95.90;;;;;;6151499;23;20231;-77
2022/12/18 07:52:09;;;;;;;33.97;16.03;;;8.60;95.90;;;;;;6152175;23;20504;-77
2022/12/18 07:54:37;;;;;;;34.83;16.20;;;8.60;95.90;;;;;;6150294;23;20235;-77
2022/12/18 07:57:07;;;;;;;33.47;16.70;;;8.60;96.00;;;;;;6155741;23;20243;-77
2022/12/18 07:59:55;;;;;;;40.73;17.57;;;8.60;96.00;;;;;;6144315;23;20236;-78
2022/12/18 08:02:23;;;;;;;42.80;18.70;;;8.60;96.00;;;;;;6152029;23;20173;-78
2022/12/18 08:04:52;;;;;;;36.40;17.97;;;8.50;95.90;;;;;;6150604;23;20172;-80
2022/12/18 08:07:20;;;;;;;44.73;19.00;;;8.50;95.90;;;;;;6154444;23;20180;-77
2022/12/18 08:09:48;;;;;;;43.70;20.27;;;8.50;96.00;;;;;;6153799;23;20180;-79
2022/12/18 08:12:18;;;;;;;41.60;18.00;;;8.50;96.00;;;;;;6161969;23;20192;-77
2022/12/18 08:14:46;;;;;;;40.87;18.07;;;8.50;96.10;;;;;;6154057;23;20177;-77
2022/12/18 08:17:15;;;;;;;37.70;17.43;;;8.50;96.10;;;;;;6148546;23;20569;-76
2022/12/18 08:19:43;;;;;;;38.60;17.77;;;8.50;96.20;;;;;;6150307;23;20172;-76
2022/12/18 08:22:12;;;;;;;37.53;17.97;;;8.50;96.20;;;;;;6146909;23;20197;-75
2022/12/18 08:24:40;;;;;;;35.27;16.40;;;8.50;96.20;;;;;;6151495;23;20177;-78
2022/12/18 08:27:08;;;;;;;39.07;20.47;;;8.50;96.10;;;;;;6154023;23;20649;-78
2022/12/18 08:29:58;;;;;;;33.63;16.20;;;8.50;96.10;;;;;;6151640;23;20180;-77
2022/12/18 08:32:27;;;;;;;31.60;15.47;;;8.50;96.20;;;;;;6153888;23;20176;-77
2022/12/18 08:34:56;;;;;;;33.10;16.30;;;8.50;96.20;;;;;;6153146;23;20176;-78
2022/12/18 08:37:24;;;;;;;31.53;14.57;;;8.50;96.20;;;;;;6153701;23;20180;-77
2022/12/18 08:39:53;;;;;;;35.63;17.50;;;8.50;96.30;;;;;;6154511;23;20180;-77
2022/12/18 08:45:09;;;;;;;33.90;16.47;;;8.60;96.30;;;;;;6152252;23;20199;-76
2022/12/18 08:47:37;;;;;;;33.63;16.33;;;8.60;96.30;;;;;;6154293;23;20161;-77
2022/12/18 08:50:06;;;;;;;36.13;17.13;;;8.60;96.40;;;;;;6152444;23;20177;-77
2022/12/18 08:52:35;;;;;;;35.27;17.30;;;8.70;96.40;;;;;;6151316;23;20223;-78
2022/12/18 08:55:03;;;;;;;32.90;15.50;;;8.70;96.50;;;;;;6151301;23;20176;-77
2022/12/18 08:57:31;;;;;;;31.13;14.53;;;8.70;96.50;;;;;;6151889;23;20544;-77
2022/12/18 09:00:00;;;;;;;33.43;16.83;;;8.80;96.50;;;;;;6151189;23;20207;-77
2022/12/18 09:02:29;;;;;;;32.57;15.67;;;8.80;96.40;;;;;;6150149;23;20211;-77
2022/12/18 09:04:58;;;;;;;32.90;15.73;;;8.80;96.40;;;;;;6148237;23;20192;-77
2022/12/18 09:07:27;;;;;;;31.77;14.70;;;8.90;96.50;;;;;;6151598;23;20180;-78
2022/12/18 09:09:55;;;;;;;29.53;14.17;;;8.90;96.50;;;;;;6151275;23;20549;-77
2022/12/18 09:12:23;;;;;;;30.60;14.00;;;8.90;96.60;;;;;;6150742;23;20204;-77
2022/12/18 09:14:54;;;;;;;27.47;12.77;;;9.00;96.80;;;;;;6149949;23;20236;-77
2022/12/18 09:17:22;;;;;;;25.73;13.47;;;9.00;96.40;;;;;;6151457;23;20177;-78
2022/12/18 09:19:52;;;;;;;26.73;12.83;;;9.10;96.50;;;;;;6149469;23;20637;-78
2022/12/18 09:22:21;;;;;;;26.27;12.95;;;9.10;96.10;;;;;;6152670;23;20398;-78
2022/12/18 09:24:50;;;;;;;23.27;11.70;;;9.10;95.60;;;;;;6151949;23;20181;-76
2022/12/18 09:27:18;;;;;;;24.90;12.10;;;9.10;95.10;;;;;;6148567;23;20177;-78
2022/12/18 09:29:46;;;;;;;26.00;11.33;;;9.10;95.10;;;;;;6151277;23;20180;-76
2022/12/18 09:32:16;;;;;;;26.07;12.03;;;9.20;95.20;;;;;;6150934;23;20169;-76
2022/12/18 09:34:49;;;;;;;24.03;11.97;;;9.20;94.90;;;;;;6149435;23;20175;-79
2022/12/18 09:37:19;;;;;;;24.33;12.43;;;9.20;95.00;;;;;;6151397;23;20207;-79
2022/12/18 09:39:47;;;;;;;22.10;11.83;;;9.30;94.80;;;;;;6151817;23;20176;-78
2022/12/18 09:42:21;;;;;;;20.43;10.57;;;9.30;94.80;;;;;;6152376;23;20240;-78
2022/12/18 09:44:52;;;;;;;25.47;10.43;;;9.20;94.30;;;;;;6152720;23;20172;-77
2022/12/18 09:47:25;;;;;;;19.27;10.10;;;9.30;94.40;;;;;;6153333;23;20156;-78
2022/12/18 09:49:57;;;;;;;19.00;9.27;;;9.30;93.70;;;;;;6148624;23;20188;-77
2022/12/18 09:52:31;;;;;;;18.23;8.87;;;9.30;92.90;;;;;;6146112;23;20157;-77
2022/12/18 09:55:05;;;;;;;16.43;8.70;;;9.30;92.90;;;;;;6148350;23;20214;-77
2022/12/18 09:57:37;;;;;;;18.23;9.27;;;9.30;93.00;;;;;;6148507;23;20161;-78
2022/12/18 10:00:16;;;;;;;18.50;9.53;;;9.30;92.80;;;;;;6149369;23;20512;-77
2022/12/18 10:02:44;;;;;;;17.67;9.63;;;9.30;92.90;;;;;;6149888;23;20176;-78
2022/12/18 10:05:15;;;;;;;17.23;8.80;;;9.30;92.60;;;;;;6148528;23;20179;-77
2022/12/18 10:07:53;;;;;;;19.63;9.67;;;9.40;92.60;;;;;;6149192;23;20160;-77
2022/12/18 10:10:36;;;;;;;17.53;9.20;;;9.30;92.20;;;;;;6151837;23;20160;-77
2022/12/18 10:13:15;;;;;;;19.90;10.07;;;9.30;91.90;;;;;;6153359;23;20228;-77
2022/12/18 10:16:04;;;;;;;20.33;9.50;;;9.30;91.90;;;;;;6153374;23;20215;-78
2022/12/18 10:19:00;;;;;;;16.77;9.00;;;9.30;91.60;;;;;;6152137;23;20172;-80
2022/12/18 10:21:36;;;;;;;21.03;9.43;;;9.20;91.40;;;;;;6151311;23;20177;-77
2022/12/18 10:24:18;;;;;;;19.10;10.63;;;9.20;91.10;;;;;;6151532;23;20184;-78
2022/12/18 10:26:47;;;;;;;17.87;9.97;;;9.20;91.00;;;;;;6150025;23;20542;-78
2022/12/18 10:29:17;;;;;;;20.23;9.63;;;9.10;90.90;;;;;;6149015;23;20176;-79
2022/12/18 10:31:45;;;;;;;18.83;10.27;;;9.10;91.00;;;;;;6152741;23;20172;-77
2022/12/18 10:34:17;;;;;;;20.37;10.80;;;9.10;91.20;;;;;;6152945;23;20177;-77
2022/12/18 10:36:45;;;;;;;21.57;11.17;;;9.00;91.00;;;;;;6150172;23;20172;-77
2022/12/18 10:39:22;;;;;;;25.47;11.77;;;8.90;91.00;;;;;;6153210;23;20232;-78
2022/12/18 10:41:57;;;;;;;23.63;11.73;;;8.90;91.20;;;;;;6152088;23;20722;-78
2022/12/18 10:44:31;;;;;;;26.23;12.53;;;8.90;91.30;;;;;;6148875;23;20203;-77
2022/12/18 10:47:05;;;;;;;23.65;13.18;;;8.80;91.30;;;;;;6150419;23;20387;-78
2022/12/18 10:49:47;;;;;;;23.30;12.43;;;8.80;91.50;;;;;;6149833;23;20164;-76
2022/12/18 10:52:18;;;;;;;21.53;11.57;;;8.80;91.50;;;;;;6151297;23;20541;-77
2022/12/18 10:54:52;;;;;;;20.67;11.07;;;8.80;91.50;;;;;;6147969;23;20235;-77
2022/12/18 10:57:35;;;;;;;23.40;11.27;;;8.80;91.30;;;;;;6153871;23;20223;-78
2022/12/18 11:00:25;;;;;;;27.00;12.88;;;8.70;91.10;;;;;;6150353;23;20394;-78
2022/12/18 11:02:54;;;;;;;23.40;12.00;;;8.70;91.40;;;;;;6151260;23;20193;-77
2022/12/18 11:05:30;;;;;;;25.70;12.47;;;8.70;91.40;;;;;;6150321;23;20172;-78
2022/12/18 11:07:59;;;;;;;21.40;11.60;;;8.60;91.30;;;;;;6151726;23;20167;-78
2022/12/18 11:10:32;;;;;;;28.40;10.47;;;8.70;91.70;;;;;;6152034;23;20165;-78
2022/12/18 11:13:12;;;;;;;23.20;11.90;;;8.60;91.40;;;;;;6153171;23;20656;-77
2022/12/18 11:15:42;;;;;;;20.93;10.30;;;8.60;91.50;;;;;;6147593;23;20168;-77
2022/12/18 11:18:20;;;;;;;20.67;10.30;;;8.60;91.50;;;;;;6147344;23;20644;-78
2022/12/18 11:20:57;;;;;;;24.93;11.23;;;8.60;91.40;;;;;;6149316;23;20171;-77
2022/12/18 11:23:27;;;;;;;21.37;10.10;;;8.60;91.10;;;;;;6150446;23;20184;-78
2022/12/18 11:26:00;;;;;;;24.92;12.82;;;8.50;91.20;;;;;;6148378;23;20386;-80
2022/12/18 11:28:36;;;;;;;24.03;12.63;;;8.50;91.40;;;;;;6149620;23;20746;-77
2022/12/18 11:31:27;;;;;;;26.17;12.27;;;8.50;91.40;;;;;;6147550;23;20170;-79
2022/12/18 11:34:04;;;;;;;26.07;11.87;;;8.40;91.50;;;;;;6140679;23;20618;-79
2022/12/18 11:36:53;;;;;;;20.97;10.73;;;8.50;91.30;;;;;;6152261;23;20246;-79
2022/12/18 11:39:28;;;;;;;25.40;12.30;;;8.50;91.20;;;;;;6150859;23;20208;-80
2022/12/18 11:42:11;;;;;;;26.40;11.90;;;8.40;91.20;;;;;;6153262;23;20219;-81
2022/12/18 11:44:47;;;;;;;23.50;11.80;;;8.50;91.40;;;;;;6150539;23;20680;-77
2022/12/18 11:47:25;;;;;;;24.00;11.10;;;8.40;91.20;;;;;;6151631;23;20167;-78
2022/12/18 11:49:55;;;;;;;26.27;12.87;;;8.50;91.20;;;;;;6150455;23;20602;-78
2022/12/18 11:52:27;;;;;;;26.37;11.87;;;8.40;91.30;;;;;;6152628;23;20538;-77
2022/12/18 11:54:59;;;;;;;22.03;10.97;;;8.40;91.30;;;;;;6147421;23;20291;-79
2022/12/18 11:57:39;;;;;;;24.93;10.80;;;8.40;91.30;;;;;;6150575;23;20160;-78
2022/12/18 12:00:14;;;;;;;29.20;11.37;;;8.40;91.30;;;;;;6153322;23;20557;-77
2022/12/18 12:03:01;;;;;;;24.88;12.60;;;8.40;91.40;;;;;;6149568;23;20414;-78
2022/12/18 12:05:44;;;;;;;23.93;11.97;;;8.40;91.50;;;;;;6147393;23;20188;-78
2022/12/18 12:08:19;;;;;;;22.33;11.20;;;8.50;91.50;;;;;;6153675;23;20164;-78
2022/12/18 12:10:57;;;;;;;21.63;11.77;;;8.50;91.60;;;;;;6149995;23;20470;-77
2022/12/18 12:13:42;;;;;;;26.77;12.80;;;8.50;91.50;;;;;;6152796;23;20740;-78
2022/12/18 12:16:17;;;;;;;28.90;14.23;;;8.50;91.40;;;;;;6147001;23;20390;-78
2022/12/18 12:19:07;;;;;;;24.50;12.03;;;8.50;91.70;;;;;;6149223;23;20161;-77
2022/12/18 12:21:41;;;;;;;23.43;11.97;;;8.50;91.70;;;;;;6155597;23;20160;-78
2022/12/18 12:24:27;;;;;;;24.37;11.30;;;8.50;91.50;;;;;;6150709;23;20176;-77
2022/12/18 12:27:06;;;;;;;22.13;11.33;;;8.50;91.20;;;;;;6153956;23;20161;-78
2022/12/18 12:29:47;;;;;;;22.93;11.73;;;8.50;91.00;;;;;;6155871;23;20171;-79
2022/12/18 12:32:29;;;;;;;22.20;11.27;;;8.50;91.00;;;;;;6153409;23;20235;-78
2022/12/18 12:35:11;;;;;;;24.70;11.97;;;8.50;91.10;;;;;;6151040;23;20527;-78
2022/12/18 12:37:50;;;;;;;22.70;11.30;;;8.40;91.30;;;;;;6153090;23;20195;-78
2022/12/18 12:40:27;;;;;;;23.03;12.30;;;8.40;91.00;;;;;;6153669;23;20199;-78
2022/12/18 12:43:24;;;;;;;25.73;11.17;;;8.40;91.00;;;;;;6150867;23;20206;-77
2022/12/18 12:46:02;;;;;;;28.57;12.40;;;8.30;90.80;;;;;;6150149;23;20183;-79
2022/12/18 12:48:38;;;;;;;25.10;11.60;;;8.40;91.00;;;;;;6151573;23;20192;-78
2022/12/18 12:51:14;;;;;;;27.83;12.93;;;8.40;91.10;;;;;;6151561;23;20163;-77
2022/12/18 12:53:42;;;;;;;22.57;12.57;;;8.40;91.00;;;;;;6152422;23;20598;-78
2022/12/18 12:56:15;;;;;;;23.83;11.57;;;8.30;90.90;;;;;;6151061;23;20255;-77
2022/12/18 12:58:55;;;;;;;26.20;12.00;;;8.20;90.80;;;;;;6148976;23;20203;-78
2022/12/18 13:01:35;;;;;;;23.23;11.73;;;8.30;91.00;;;;;;6151920;23;20515;-77
2022/12/18 13:04:20;;;;;;;27.00;12.03;;;8.30;91.10;;;;;;6151528;23;20600;-78
2022/12/18 13:06:55;;;;;;;23.10;11.50;;;8.20;91.20;;;;;;6153792;23;20160;-78
2022/12/18 13:09:23;;;;;;;29.20;13.43;;;8.30;91.30;;;;;;6151056;23;20409;-77